createdAt,value
2019-02-07T00:01:38.126Z,17.80
2019-02-07T00:02:38.119Z,16.60
2019-02-07T00:03:38.328Z,17.10
2019-02-07T00:05:38.104Z,16.50
2019-02-07T00:06:38.295Z,16.20
2019-02-07T00:07:39.198Z,16.30
2019-02-07T00:09:41.127Z,17.40
2019-02-07T00:11:38.274Z,16.80
2019-02-07T00:12:38.269Z,16.40
2019-02-07T00:13:38.268Z,17.00
2019-02-07T00:14:39.983Z,16.50
2019-02-07T00:16:38.059Z,16.90
2019-02-07T00:19:38.019Z,16.80
2019-02-07T00:20:38.220Z,16.60
2019-02-07T00:22:39.324Z,17.60
2019-02-07T00:23:38.197Z,16.90
2019-02-07T00:24:43.004Z,16.40
2019-02-07T00:25:38.527Z,17.30
2019-02-07T00:26:38.405Z,17.30
2019-02-07T00:28:39.081Z,17.90
2019-02-07T00:29:37.981Z,16.90
2019-02-07T00:30:37.992Z,18.30
2019-02-07T00:31:38.403Z,17.30
2019-02-07T00:33:37.957Z,17.10
2019-02-07T00:34:37.963Z,16.60
2019-02-07T00:35:38.370Z,16.90
2019-02-07T00:36:38.163Z,18.00
2019-02-07T00:37:37.958Z,17.10
2019-02-07T00:38:37.936Z,17.10
2019-02-07T00:40:38.141Z,16.70
2019-02-07T00:41:37.924Z,18.50
2019-02-07T00:42:37.919Z,17.90
2019-02-07T00:43:38.553Z,18.30
2019-02-07T00:47:37.989Z,16.90
2019-02-07T00:48:37.894Z,17.40
2019-02-07T00:51:38.077Z,17.40
2019-02-07T00:52:38.174Z,16.80
2019-02-07T00:53:38.475Z,17.60
2019-02-07T00:55:38.072Z,17.40
2019-02-07T00:56:39.712Z,17.50
2019-02-07T00:57:37.833Z,17.70
2019-02-07T00:58:37.854Z,17.60
2019-02-07T00:59:38.035Z,17.60
2019-02-07T01:01:38.147Z,17.00
2019-02-07T01:03:38.028Z,18.30
2019-02-07T01:04:38.021Z,18.50
2019-02-07T01:06:37.811Z,18.50
2019-02-07T01:07:38.436Z,16.90
2019-02-07T01:08:37.999Z,16.80
2019-02-07T01:09:37.795Z,16.60
2019-02-07T01:11:38.360Z,16.90
2019-02-07T01:12:37.793Z,16.50
2019-02-07T01:13:39.299Z,17.20
2019-02-07T01:14:37.965Z,17.20
2019-02-07T01:15:38.162Z,16.70
2019-02-07T01:16:41.403Z,17.00
2019-02-07T01:18:37.935Z,18.00
2019-02-07T01:21:38.227Z,18.10
2019-02-07T01:22:37.725Z,18.20
2019-02-07T01:23:37.920Z,17.80
2019-02-07T01:24:37.913Z,17.30
2019-02-07T01:25:38.322Z,17.50
2019-02-07T01:26:37.964Z,16.90
2019-02-07T01:28:37.888Z,18.20
2019-02-07T01:29:38.092Z,17.50
2019-02-07T01:30:37.689Z,18.00
2019-02-07T01:31:37.679Z,17.70
2019-02-07T01:36:37.646Z,17.10
2019-02-07T01:37:38.051Z,17.00
2019-02-07T01:38:38.042Z,17.20
2019-02-07T01:40:38.435Z,16.20
2019-02-07T01:41:37.640Z,16.80
2019-02-07T01:43:37.610Z,17.10
2019-02-07T01:46:37.784Z,16.80
2019-02-07T01:47:37.782Z,17.60
2019-02-07T01:48:37.606Z,17.00
2019-02-07T01:49:38.401Z,16.80
2019-02-07T01:51:37.984Z,16.70
2019-02-07T01:52:37.889Z,16.70
2019-02-07T01:53:37.559Z,17.00
2019-02-07T01:55:37.552Z,16.90
2019-02-07T01:56:37.946Z,16.40
2019-02-07T01:57:37.750Z,16.80
2019-02-07T01:59:37.539Z,16.80
2019-02-07T02:01:38.120Z,17.70
2019-02-07T02:03:37.529Z,16.70
2019-02-07T02:05:37.700Z,17.00
2019-02-07T02:06:37.516Z,16.00
2019-02-07T02:07:37.499Z,17.20
2019-02-07T02:08:38.304Z,16.90
2019-02-07T02:10:37.480Z,17.80
2019-02-07T02:11:37.690Z,17.20
2019-02-07T02:12:37.657Z,17.40
2019-02-07T02:14:37.646Z,17.10
2019-02-07T02:16:37.848Z,17.50
2019-02-07T02:17:37.630Z,17.70
2019-02-07T02:18:37.435Z,17.40
2019-02-07T02:22:37.607Z,17.90
2019-02-07T02:23:37.404Z,17.40
2019-02-07T02:24:37.418Z,18.50
2019-02-07T02:25:37.391Z,18.00
2019-02-07T02:27:37.593Z,17.80
2019-02-07T02:28:37.989Z,18.10
2019-02-07T02:30:37.773Z,18.60
2019-02-07T02:31:37.559Z,18.40
2019-02-07T02:32:37.356Z,18.70
2019-02-07T02:38:37.318Z,18.70
2019-02-07T02:39:37.329Z,18.30
2019-02-07T02:40:37.311Z,18.90
2019-02-07T02:41:37.505Z,19.20
2019-02-07T02:42:37.314Z,19.10
2019-02-07T02:45:38.080Z,19.20
2019-02-07T02:47:37.406Z,20.00
2019-02-07T02:49:37.862Z,20.00
2019-02-07T02:50:37.958Z,18.80
2019-02-07T02:52:40.201Z,18.70
2019-02-07T02:53:37.436Z,19.10
2019-02-07T02:54:37.447Z,20.30
2019-02-07T02:58:37.219Z,20.70
2019-02-07T03:01:37.705Z,20.50
2019-02-07T03:02:37.391Z,19.40
2019-02-07T03:03:37.190Z,20.60
2019-02-07T03:04:38.125Z,20.00
2019-02-07T03:06:37.374Z,19.40
2019-02-07T03:07:37.549Z,19.70
2019-02-07T03:11:37.943Z,20.50
2019-02-07T03:12:38.246Z,20.70
2019-02-07T03:13:37.125Z,20.20
2019-02-07T03:14:37.121Z,19.80
2019-02-07T03:16:37.138Z,19.90
2019-02-07T03:17:37.721Z,19.90
2019-02-07T03:19:37.905Z,19.90
2019-02-07T03:21:37.099Z,19.90
2019-02-07T03:23:37.068Z,20.50
2019-02-07T03:24:37.068Z,19.30
2019-02-07T03:26:37.670Z,19.60
2019-02-07T03:27:37.145Z,19.80
2019-02-07T03:28:37.456Z,19.80
2019-02-07T03:29:37.038Z,20.00
2019-02-07T03:30:37.841Z,20.20
2019-02-07T03:31:37.029Z,19.70
2019-02-07T03:33:37.021Z,19.00
2019-02-07T03:35:37.618Z,18.30
2019-02-07T03:37:37.510Z,18.70
2019-02-07T03:40:36.984Z,19.10
2019-02-07T03:41:37.195Z,19.40
2019-02-07T03:42:37.278Z,19.20
2019-02-07T03:43:37.385Z,19.20
2019-02-07T03:47:36.950Z,18.10
2019-02-07T03:50:37.341Z,18.30
2019-02-07T03:51:37.120Z,18.40
2019-02-07T03:52:37.210Z,19.20
2019-02-07T03:53:37.130Z,19.40
2019-02-07T03:55:37.118Z,18.10
2019-02-07T03:57:36.908Z,18.90
2019-02-07T03:58:36.889Z,18.50
2019-02-07T04:00:38.310Z,18.70
2019-02-07T04:01:36.890Z,18.50
2019-02-07T04:02:37.061Z,18.80
2019-02-07T04:04:36.875Z,17.60
2019-02-07T04:05:36.852Z,17.60
2019-02-07T04:06:37.043Z,17.90
2019-02-07T04:08:37.648Z,17.80
2019-02-07T04:11:36.954Z,17.10
2019-02-07T04:13:36.799Z,16.50
2019-02-07T04:14:36.808Z,16.80
2019-02-07T04:15:36.995Z,15.80
2019-02-07T04:17:36.812Z,16.80
2019-02-07T04:18:37.383Z,16.70
2019-02-07T04:19:37.083Z,17.40
2019-02-07T04:20:36.770Z,16.20
2019-02-07T04:21:37.595Z,17.00
2019-02-07T04:22:36.771Z,15.90
2019-02-07T04:23:37.061Z,16.00
2019-02-07T04:24:37.465Z,16.30
2019-02-07T04:25:37.156Z,17.00
2019-02-07T04:26:40.692Z,16.60
2019-02-07T04:30:36.929Z,16.20
2019-02-07T04:31:36.908Z,16.80
2019-02-07T04:32:36.908Z,16.20
2019-02-07T04:33:36.921Z,16.80
2019-02-07T04:35:36.748Z,15.80
2019-02-07T04:36:36.948Z,15.60
2019-02-07T04:38:36.880Z,15.70
2019-02-07T04:40:37.263Z,16.00
2019-02-07T04:41:36.651Z,15.40
2019-02-07T04:42:36.674Z,15.90
2019-02-07T04:45:36.648Z,16.00
2019-02-07T04:46:36.835Z,15.40
2019-02-07T04:48:36.637Z,15.80
2019-02-07T04:49:37.022Z,15.30
2019-02-07T04:50:36.922Z,15.10
2019-02-07T04:52:36.613Z,15.30
2019-02-07T04:54:36.590Z,15.50
2019-02-07T04:56:36.810Z,14.80
2019-02-07T04:57:36.772Z,14.90
2019-02-07T04:58:37.501Z,14.90
2019-02-07T04:59:36.601Z,15.10
2019-02-07T05:00:36.565Z,14.50
2019-02-07T05:01:36.952Z,15.10
2019-02-07T05:02:37.472Z,15.20
2019-02-07T05:03:37.356Z,15.50
2019-02-07T05:04:36.749Z,15.80
2019-02-07T05:05:36.741Z,14.90
2019-02-07T05:06:36.524Z,14.60
2019-02-07T05:07:36.525Z,15.30
2019-02-07T05:09:36.530Z,14.50
2019-02-07T05:10:36.715Z,15.50
2019-02-07T05:12:36.481Z,15.00
2019-02-07T05:15:36.682Z,14.70
2019-02-07T05:16:40.162Z,15.00
2019-02-07T05:17:36.877Z,15.00
2019-02-07T05:18:36.448Z,14.60
2019-02-07T05:19:36.446Z,14.60
2019-02-07T05:20:36.735Z,14.90
2019-02-07T05:21:36.855Z,14.30
2019-02-07T05:22:36.443Z,14.80
2019-02-07T05:26:36.407Z,14.20
2019-02-07T05:28:36.800Z,14.00
2019-02-07T05:30:36.398Z,14.00
2019-02-07T05:32:36.891Z,14.00
2019-02-07T05:33:36.623Z,13.70
2019-02-07T05:34:36.385Z,13.90
2019-02-07T05:36:36.758Z,14.10
2019-02-07T05:38:36.747Z,14.30
2019-02-07T05:39:37.060Z,14.30
2019-02-07T05:40:36.531Z,14.60
2019-02-07T05:41:36.331Z,14.40
2019-02-07T05:43:36.306Z,13.80
2019-02-07T05:44:36.321Z,13.00
2019-02-07T05:45:36.318Z,13.30
2019-02-07T05:46:36.520Z,13.70
2019-02-07T05:47:36.295Z,14.20
2019-02-07T05:48:36.288Z,14.00
2019-02-07T05:49:37.823Z,14.20
2019-02-07T05:51:36.499Z,13.70
2019-02-07T05:52:36.695Z,13.60
2019-02-07T05:53:36.288Z,12.80
2019-02-07T05:55:36.657Z,14.10
2019-02-07T05:56:36.252Z,13.10
2019-02-07T05:57:36.548Z,13.20
2019-02-07T05:59:36.954Z,13.10
2019-02-07T06:00:36.226Z,13.60
2019-02-07T06:01:36.941Z,12.90
2019-02-07T06:02:37.134Z,12.90
2019-02-07T06:05:36.809Z,11.70
2019-02-07T06:07:36.193Z,12.90
2019-02-07T06:11:36.171Z,13.50
2019-02-07T06:16:36.138Z,12.30
2019-02-07T06:19:37.639Z,13.10
2019-02-07T06:20:36.324Z,12.00
2019-02-07T06:21:36.529Z,12.30
2019-02-07T06:23:36.293Z,12.40
2019-02-07T06:24:36.303Z,12.10
2019-02-07T06:25:37.030Z,12.80
2019-02-07T06:26:36.322Z,12.30
2019-02-07T06:27:37.199Z,12.80
2019-02-07T06:29:36.087Z,12.60
2019-02-07T06:30:36.062Z,12.70
2019-02-07T06:31:36.678Z,12.50
2019-02-07T06:32:36.873Z,12.70
2019-02-07T06:33:36.250Z,12.40
2019-02-07T06:34:36.040Z,12.60
2019-02-07T06:35:36.432Z,12.30
2019-02-07T06:36:36.038Z,12.50
2019-02-07T06:37:36.437Z,12.40
2019-02-07T06:38:36.224Z,12.30
2019-02-07T06:39:36.931Z,12.30
2019-02-07T06:40:36.025Z,13.10
2019-02-07T06:43:36.206Z,12.70
2019-02-07T06:44:35.987Z,12.60
2019-02-07T06:45:36.498Z,13.20
2019-02-07T06:46:36.178Z,12.90
2019-02-07T06:47:35.969Z,12.50
2019-02-07T06:48:35.966Z,11.70
2019-02-07T06:49:36.160Z,12.40
2019-02-07T06:51:36.172Z,12.30
2019-02-07T06:54:35.939Z,12.40
2019-02-07T06:55:36.148Z,12.70
2019-02-07T06:56:36.536Z,12.30
2019-02-07T06:57:35.931Z,12.70
2019-02-07T06:58:36.831Z,12.30
2019-02-07T06:59:36.105Z,13.40
2019-02-07T07:02:36.109Z,13.50
2019-02-07T07:03:35.911Z,13.40
2019-02-07T07:06:36.886Z,13.90
2019-02-07T07:07:36.469Z,13.30
2019-02-07T07:08:35.859Z,13.30
2019-02-07T07:09:35.851Z,13.80
2019-02-07T07:10:36.276Z,14.30
2019-02-07T07:11:35.858Z,13.30
2019-02-07T07:12:35.864Z,14.10
2019-02-07T07:15:35.832Z,13.70
2019-02-07T07:17:36.234Z,14.30
2019-02-07T07:18:35.829Z,14.70
2019-02-07T07:19:35.810Z,15.30
2019-02-07T07:20:36.021Z,15.60
2019-02-07T07:21:36.205Z,15.50
2019-02-07T07:24:35.788Z,15.30
2019-02-07T07:25:35.974Z,15.80
2019-02-07T07:26:36.186Z,16.60
2019-02-07T07:27:35.760Z,15.80
2019-02-07T07:28:35.767Z,15.10
2019-02-07T07:31:35.749Z,15.00
2019-02-07T07:32:35.760Z,15.90
2019-02-07T07:35:35.724Z,16.10
2019-02-07T07:36:35.737Z,15.90
2019-02-07T07:37:38.995Z,16.10
2019-02-07T07:38:35.708Z,15.60
2019-02-07T07:39:36.355Z,16.50
2019-02-07T07:41:35.893Z,16.40
2019-02-07T07:42:36.121Z,15.50
2019-02-07T07:43:35.891Z,15.70
2019-02-07T07:45:36.385Z,14.90
2019-02-07T07:46:36.272Z,16.20
2019-02-07T07:47:36.363Z,16.30
2019-02-07T07:49:35.669Z,16.50
2019-02-07T07:50:35.650Z,16.70
2019-02-07T07:52:36.049Z,15.90
2019-02-07T07:54:35.830Z,15.20
2019-02-07T07:55:35.615Z,15.60
2019-02-07T07:58:35.603Z,15.60
2019-02-07T08:04:35.777Z,15.80
2019-02-07T08:07:35.551Z,16.10
2019-02-07T08:08:35.550Z,15.90
2019-02-07T08:10:36.561Z,16.00
2019-02-07T08:12:36.639Z,15.40
2019-02-07T08:13:35.745Z,16.60
2019-02-07T08:14:35.747Z,15.90
2019-02-07T08:15:36.027Z,15.50
2019-02-07T08:16:35.725Z,15.40
2019-02-07T08:19:35.781Z,17.40
2019-02-07T08:20:36.404Z,16.60
2019-02-07T08:23:35.490Z,14.80
2019-02-07T08:24:35.703Z,15.30
2019-02-07T08:25:35.472Z,16.00
2019-02-07T08:27:35.460Z,15.30
2019-02-07T08:29:35.447Z,15.80
2019-02-07T08:30:36.786Z,16.80
2019-02-07T08:31:35.463Z,16.00
2019-02-07T08:38:35.609Z,17.80
2019-02-07T08:39:35.666Z,18.30
2019-02-07T08:40:35.412Z,17.60
2019-02-07T08:41:35.407Z,17.00
2019-02-07T08:45:35.792Z,17.30
2019-02-07T08:46:35.827Z,18.60
2019-02-07T08:47:35.378Z,18.20
2019-02-07T08:48:35.772Z,17.50
2019-02-07T08:50:35.350Z,17.90
2019-02-07T08:51:35.646Z,18.20
2019-02-07T08:52:35.339Z,18.80
2019-02-07T08:53:35.328Z,19.10
2019-02-07T08:54:35.577Z,19.70
2019-02-07T08:55:35.809Z,18.90
2019-02-07T08:56:35.319Z,19.00
2019-02-07T08:57:35.491Z,18.50
2019-02-07T08:58:35.496Z,19.10
2019-02-07T08:59:36.240Z,18.50
2019-02-07T09:00:36.212Z,18.70
2019-02-07T09:03:35.274Z,19.20
2019-02-07T09:04:36.089Z,18.30
2019-02-07T09:06:35.665Z,18.20
2019-02-07T09:07:35.243Z,18.50
2019-02-07T09:08:35.257Z,17.20
2019-02-07T09:10:35.243Z,18.20
2019-02-07T09:11:35.555Z,17.80
2019-02-07T09:12:35.437Z,18.00
2019-02-07T09:13:35.243Z,18.30
2019-02-07T09:14:35.436Z,17.70
2019-02-07T09:15:35.629Z,17.50
2019-02-07T09:16:35.219Z,18.10
2019-02-07T09:18:35.421Z,17.70
2019-02-07T09:19:35.208Z,16.70
2019-02-07T09:20:35.410Z,17.50
2019-02-07T09:22:35.208Z,17.40
2019-02-07T09:23:35.606Z,16.80
2019-02-07T09:25:35.578Z,16.70
2019-02-07T09:26:35.461Z,16.00
2019-02-07T09:27:35.674Z,15.00
2019-02-07T09:29:36.070Z,9.70
2019-02-07T09:30:35.142Z,9.40
2019-02-07T09:31:35.152Z,6.00
2019-02-07T09:32:35.135Z,4.70
2019-02-07T09:34:35.146Z,3.30
2019-02-07T09:37:35.335Z,3.10
2019-02-07T09:38:35.737Z,2.90
2019-02-07T09:39:35.603Z,3.30
2019-02-07T09:40:35.120Z,3.60
2019-02-07T09:42:35.103Z,4.50
2019-02-07T09:43:35.925Z,4.40
2019-02-07T09:45:35.296Z,4.50
2019-02-07T09:46:35.096Z,4.40
2019-02-07T09:47:35.067Z,4.90
2019-02-07T09:48:35.071Z,4.20
2019-02-07T09:49:35.082Z,4.20
2019-02-07T09:50:35.063Z,4.70
2019-02-07T09:52:35.072Z,4.30
2019-02-07T09:54:35.054Z,4.90
2019-02-07T09:56:35.859Z,5.20
2019-02-07T09:57:35.773Z,4.10
2019-02-07T09:58:35.050Z,4.70
2019-02-07T10:00:35.640Z,4.80
2019-02-07T10:01:35.231Z,4.70
2019-02-07T10:04:35.011Z,4.90
2019-02-07T10:05:35.203Z,5.30
2019-02-07T10:06:35.624Z,5.10
2019-02-07T10:10:34.984Z,5.30
2019-02-07T10:12:34.974Z,5.00
2019-02-07T10:14:35.172Z,5.20
2019-02-07T10:17:35.162Z,5.20
2019-02-07T10:18:34.948Z,5.00
2019-02-07T10:20:37.281Z,5.00
2019-02-07T10:23:35.194Z,5.20
2019-02-07T10:25:35.758Z,5.60
2019-02-07T10:27:34.893Z,5.10
2019-02-07T10:28:34.926Z,4.90
2019-02-07T10:29:34.897Z,4.80
2019-02-07T10:30:34.899Z,4.80
2019-02-07T10:31:34.903Z,5.00
2019-02-07T10:33:34.887Z,4.40
2019-02-07T10:34:35.282Z,5.00
2019-02-07T10:35:35.287Z,5.30
2019-02-07T10:39:34.868Z,4.90
2019-02-07T10:40:35.062Z,5.60
2019-02-07T10:41:34.863Z,5.20
2019-02-07T10:42:34.850Z,4.40
2019-02-07T10:43:34.835Z,5.30
2019-02-07T10:44:34.870Z,5.80
2019-02-07T10:45:35.053Z,5.40
2019-02-07T10:46:34.847Z,5.70
2019-02-07T10:47:35.757Z,5.00
2019-02-07T10:48:44.253Z,4.80
2019-02-07T10:49:34.821Z,4.40
2019-02-07T10:51:34.811Z,5.00
2019-02-07T10:52:35.032Z,4.70
2019-02-07T10:53:35.116Z,5.00
2019-02-07T10:54:35.215Z,4.70
2019-02-07T10:55:34.797Z,4.90
2019-02-07T10:56:34.808Z,4.70
2019-02-07T10:59:35.315Z,4.90
2019-02-07T11:00:34.780Z,4.80
2019-02-07T11:01:35.071Z,5.20
2019-02-07T11:03:35.188Z,4.20
2019-02-07T11:04:35.287Z,4.80
2019-02-07T11:05:34.778Z,4.70
2019-02-07T11:06:35.187Z,4.30
2019-02-07T11:07:34.757Z,4.40
2019-02-07T11:08:34.757Z,5.20
2019-02-07T11:11:34.764Z,4.50
2019-02-07T11:12:34.743Z,4.90
2019-02-07T11:15:34.742Z,5.30
2019-02-07T11:16:34.971Z,4.60
2019-02-07T11:17:35.134Z,4.50
2019-02-07T11:18:35.030Z,4.60
2019-02-07T11:19:34.748Z,5.10
2019-02-07T11:21:34.723Z,4.50
2019-02-07T11:22:34.911Z,5.50
2019-02-07T11:23:34.713Z,4.80
2019-02-07T11:25:35.410Z,5.00
2019-02-07T11:27:34.882Z,5.00
2019-02-07T11:28:34.993Z,5.00
2019-02-07T11:29:34.889Z,4.80
2019-02-07T11:30:35.286Z,5.60
2019-02-07T11:32:34.871Z,5.10
2019-02-07T11:33:35.288Z,4.80
2019-02-07T11:36:34.668Z,4.70
2019-02-07T11:37:34.870Z,4.70
2019-02-07T11:41:35.258Z,4.70
2019-02-07T11:42:34.632Z,4.70
2019-02-07T11:43:34.838Z,4.50
2019-02-07T11:44:34.835Z,4.90
2019-02-07T11:45:35.053Z,4.70
2019-02-07T11:46:37.562Z,4.60
2019-02-07T11:47:35.103Z,5.00
2019-02-07T11:50:34.613Z,4.70
2019-02-07T11:51:34.611Z,4.70
2019-02-07T11:53:34.608Z,4.30
2019-02-07T11:55:34.593Z,4.00
2019-02-07T11:56:34.614Z,4.30
2019-02-07T11:57:34.582Z,4.90
2019-02-07T11:58:34.620Z,4.40
2019-02-07T11:59:35.012Z,5.20
2019-02-07T12:00:34.768Z,4.10
2019-02-07T12:01:34.796Z,3.90
2019-02-07T12:02:34.784Z,4.30
2019-02-07T12:03:35.188Z,4.10
2019-02-07T12:04:34.978Z,3.90
2019-02-07T12:06:34.559Z,4.20
2019-02-07T12:07:34.754Z,4.60
2019-02-07T12:08:34.926Z,3.90
2019-02-07T12:09:34.520Z,3.80
2019-02-07T12:10:35.268Z,4.20
2019-02-07T12:11:34.526Z,4.40
2019-02-07T12:13:34.512Z,4.40
2019-02-07T12:14:34.536Z,4.60
2019-02-07T12:15:34.517Z,3.80
2019-02-07T12:16:34.506Z,4.30
2019-02-07T12:17:34.499Z,4.20
2019-02-07T12:18:34.707Z,4.30
2019-02-07T12:19:34.508Z,3.60
2019-02-07T12:20:34.505Z,3.90
2019-02-07T12:21:34.523Z,3.90
2019-02-07T12:22:37.266Z,3.60
2019-02-07T12:23:34.498Z,3.70
2019-02-07T12:24:34.488Z,3.80
2019-02-07T12:25:34.495Z,3.40
2019-02-07T12:27:34.491Z,3.60
2019-02-07T12:28:36.180Z,3.60
2019-02-07T12:29:34.467Z,3.00
2019-02-07T12:30:34.780Z,3.40
2019-02-07T12:31:34.662Z,3.50
2019-02-07T12:32:34.659Z,3.50
2019-02-07T12:33:34.652Z,3.80
2019-02-07T12:34:34.669Z,2.90
2019-02-07T12:35:34.437Z,4.00
2019-02-07T12:36:34.655Z,3.20
2019-02-07T12:37:34.640Z,3.80
2019-02-07T12:39:34.426Z,3.60
2019-02-07T12:41:34.643Z,3.20
2019-02-07T12:43:34.429Z,2.60
2019-02-07T12:44:34.414Z,2.90
2019-02-07T12:45:34.630Z,3.70
2019-02-07T12:46:34.433Z,3.30
2019-02-07T12:47:34.401Z,3.30
2019-02-07T12:48:34.709Z,3.30
2019-02-07T12:49:34.397Z,3.20
2019-02-07T12:51:34.400Z,3.00
2019-02-07T12:52:34.400Z,3.20
2019-02-07T12:53:34.848Z,3.00
2019-02-07T12:55:34.798Z,3.30
2019-02-07T12:56:34.765Z,3.00
2019-02-07T12:57:34.369Z,2.50
2019-02-07T12:58:34.359Z,3.20
2019-02-07T12:59:34.365Z,2.60
2019-02-07T13:00:34.378Z,2.70
2019-02-07T13:01:34.566Z,2.60
2019-02-07T13:02:34.352Z,3.40
2019-02-07T13:03:34.556Z,2.80
2019-02-07T13:04:34.740Z,3.10
2019-02-07T13:05:34.659Z,3.50
2019-02-07T13:07:34.320Z,3.10
2019-02-07T13:08:34.313Z,3.00
2019-02-07T13:09:34.313Z,2.60
2019-02-07T13:10:34.328Z,2.80
2019-02-07T13:11:34.308Z,3.00
2019-02-07T13:12:34.338Z,2.30
2019-02-07T13:13:34.322Z,2.70
2019-02-07T13:14:34.621Z,3.40
2019-02-07T13:15:34.311Z,3.10
2019-02-07T13:16:34.293Z,2.90
2019-02-07T13:17:34.331Z,2.80
2019-02-07T13:18:34.338Z,2.60
2019-02-07T13:19:40.498Z,3.20
2019-02-07T13:21:34.298Z,2.60
2019-02-07T13:22:34.294Z,3.00
2019-02-07T13:23:34.317Z,3.10
2019-02-07T13:24:34.287Z,3.00
2019-02-07T13:26:34.742Z,3.10
2019-02-07T13:27:34.285Z,2.70
2019-02-07T13:28:34.255Z,2.60
2019-02-07T13:29:34.297Z,2.70
2019-02-07T13:30:34.476Z,7.00
2019-02-07T13:31:34.387Z,3.30
2019-02-07T13:32:34.340Z,2.40
2019-02-07T13:33:34.511Z,3.20
2019-02-07T13:34:34.253Z,2.90
2019-02-07T13:35:34.621Z,2.50
2019-02-07T13:36:34.276Z,2.50
2019-02-07T13:37:34.694Z,3.10
2019-02-07T13:38:34.230Z,2.30
2019-02-07T13:40:34.746Z,2.50
2019-02-07T13:41:34.219Z,3.90
2019-02-07T13:42:34.232Z,4.10
2019-02-07T13:43:34.422Z,4.40
2019-02-07T13:44:34.227Z,3.50
2019-02-07T13:45:34.209Z,2.90
2019-02-07T13:46:34.212Z,2.40
2019-02-07T13:47:34.190Z,3.30
2019-02-07T13:48:34.205Z,2.60
2019-02-07T13:49:34.200Z,2.80
2019-02-07T13:50:34.612Z,2.30
2019-02-07T13:51:34.178Z,2.50
2019-02-07T13:53:34.595Z,2.90
2019-02-07T13:55:34.190Z,3.10
2019-02-07T13:56:34.600Z,2.20
2019-02-07T13:57:34.173Z,2.80
2019-02-07T13:58:34.182Z,2.80
2019-02-07T13:59:34.145Z,2.60
2019-02-07T14:00:34.160Z,2.60
2019-02-07T14:02:34.377Z,2.70
2019-02-07T14:03:34.130Z,2.80
2019-02-07T14:04:34.357Z,2.60
2019-02-07T14:05:34.151Z,2.80
2019-02-07T14:06:34.734Z,2.50
2019-02-07T14:07:34.141Z,2.50
2019-02-07T14:08:38.402Z,2.30
2019-02-07T14:09:34.132Z,2.20
2019-02-07T14:10:34.129Z,2.40
2019-02-07T14:11:34.149Z,2.40
2019-02-07T14:12:34.128Z,2.50
2019-02-07T14:13:34.124Z,3.20
2019-02-07T14:14:34.529Z,2.40
2019-02-07T14:15:34.101Z,2.30
2019-02-07T14:16:34.105Z,2.20
2019-02-07T14:17:34.308Z,2.40
2019-02-07T14:19:34.314Z,2.40
2019-02-07T14:20:34.098Z,2.60
2019-02-07T14:21:34.609Z,2.30
2019-02-07T14:22:34.600Z,2.00
2019-02-07T14:23:34.402Z,2.10
2019-02-07T14:24:34.494Z,2.10
2019-02-07T14:25:34.285Z,2.40
2019-02-07T14:26:34.609Z,2.40
2019-02-07T14:27:34.487Z,2.10
2019-02-07T14:28:34.052Z,2.50
2019-02-07T14:29:34.250Z,2.20
2019-02-07T14:30:34.248Z,2.30
2019-02-07T14:31:34.050Z,2.20
2019-02-07T14:32:34.051Z,2.60
2019-02-07T14:33:34.064Z,2.40
2019-02-07T14:34:34.054Z,2.50
2019-02-07T14:35:34.237Z,2.40
2019-02-07T14:36:34.035Z,2.30
2019-02-07T14:37:34.023Z,2.20
2019-02-07T14:38:34.035Z,2.60
2019-02-07T14:39:34.041Z,2.50
2019-02-07T14:40:34.026Z,2.00
2019-02-07T14:41:34.334Z,2.20
2019-02-07T14:42:34.015Z,2.40
2019-02-07T14:43:34.074Z,2.40
2019-02-07T14:44:34.019Z,2.50
2019-02-07T14:45:34.029Z,2.00
2019-02-07T14:46:34.204Z,2.20
2019-02-07T14:47:34.215Z,2.40
2019-02-07T14:48:34.006Z,2.50
2019-02-07T14:49:33.997Z,2.20
2019-02-07T14:50:34.200Z,2.20
2019-02-07T14:51:33.997Z,2.20
2019-02-07T14:52:34.010Z,2.70
2019-02-07T14:53:33.972Z,2.50
2019-02-07T14:54:33.987Z,2.30
2019-02-07T14:55:33.979Z,2.50
2019-02-07T14:56:33.972Z,2.60
2019-02-07T14:57:33.989Z,2.70
2019-02-07T14:59:33.972Z,2.00
2019-02-07T15:00:33.971Z,2.40
2019-02-07T15:02:33.959Z,2.20
2019-02-07T15:03:33.945Z,2.10
2019-02-07T15:04:33.957Z,2.10
2019-02-07T15:05:33.943Z,2.20
2019-02-07T15:07:34.125Z,2.10
2019-02-07T15:08:33.929Z,2.50
2019-02-07T15:09:34.143Z,2.10
2019-02-07T15:10:34.227Z,2.00
2019-02-07T15:11:33.939Z,2.50
2019-02-07T15:12:33.913Z,2.20
2019-02-07T15:13:33.937Z,2.30
2019-02-07T15:14:33.915Z,2.40
2019-02-07T15:15:34.125Z,2.30
2019-02-07T15:17:33.900Z,2.00
2019-02-07T15:18:33.910Z,2.20
2019-02-07T15:19:33.896Z,2.20
2019-02-07T15:20:33.898Z,2.00
2019-02-07T15:21:33.889Z,2.20
2019-02-07T15:22:33.888Z,1.90
2019-02-07T15:23:33.878Z,2.00
2019-02-07T15:24:33.875Z,2.20
2019-02-07T15:25:33.883Z,2.10
2019-02-07T15:26:34.279Z,2.40
2019-02-07T15:27:34.061Z,2.40
2019-02-07T15:28:33.965Z,2.10
2019-02-07T15:29:33.879Z,2.40
2019-02-07T15:30:34.081Z,2.60
2019-02-07T15:31:33.840Z,2.00
2019-02-07T15:32:33.835Z,2.00
2019-02-07T15:33:33.846Z,2.50
2019-02-07T15:34:33.857Z,2.50
2019-02-07T15:35:34.359Z,2.20
2019-02-07T15:36:33.834Z,2.50
2019-02-07T15:37:34.028Z,2.00
2019-02-07T15:38:34.063Z,2.00
2019-02-07T15:39:33.852Z,2.30
2019-02-07T15:40:33.809Z,2.10
2019-02-07T15:41:33.840Z,2.40
2019-02-07T15:42:33.839Z,2.30
2019-02-07T15:43:33.831Z,2.00
2019-02-07T15:45:34.020Z,1.90
2019-02-07T15:46:33.884Z,2.20
2019-02-07T15:47:33.802Z,2.20
2019-02-07T15:48:33.803Z,1.80
2019-02-07T15:49:33.777Z,2.20
2019-02-07T15:50:38.310Z,2.00
2019-02-07T15:51:34.098Z,2.10
2019-02-07T15:52:33.784Z,1.90
2019-02-07T15:53:33.792Z,2.00
2019-02-07T15:54:33.979Z,1.80
2019-02-07T15:56:33.770Z,1.90
2019-02-07T15:57:33.773Z,2.00
2019-02-07T15:58:33.771Z,2.40
2019-02-07T15:59:34.180Z,2.00
2019-02-07T16:00:33.972Z,2.00
2019-02-07T16:01:33.761Z,2.00
2019-02-07T16:03:33.743Z,2.20
2019-02-07T16:04:33.946Z,2.20
2019-02-07T16:05:33.745Z,2.50
2019-02-07T16:06:33.953Z,2.10
2019-02-07T16:07:33.747Z,2.30
2019-02-07T16:08:34.135Z,2.40
2019-02-07T16:09:33.731Z,2.30
2019-02-07T16:10:33.939Z,2.00
2019-02-07T16:11:33.707Z,1.90
2019-02-07T16:12:33.935Z,2.00
2019-02-07T16:13:33.705Z,2.30
2019-02-07T16:14:33.723Z,2.10
2019-02-07T16:15:33.917Z,1.90
2019-02-07T16:16:33.719Z,2.00
2019-02-07T16:17:33.808Z,2.00
2019-02-07T16:18:33.891Z,1.80
2019-02-07T16:19:33.706Z,1.90
2019-02-07T16:20:34.315Z,2.00
2019-02-07T16:22:34.003Z,2.00
2019-02-07T16:23:33.666Z,2.20
2019-02-07T16:24:33.883Z,1.90
2019-02-07T16:26:33.674Z,1.90
2019-02-07T16:28:33.666Z,1.90
2019-02-07T16:29:33.878Z,1.90
2019-02-07T16:30:33.864Z,1.90
2019-02-07T16:31:33.859Z,1.70
2019-02-07T16:32:33.669Z,1.80
2019-02-07T16:33:33.854Z,1.90
2019-02-07T16:34:33.862Z,2.00
2019-02-07T16:35:33.659Z,1.90
2019-02-07T16:36:34.035Z,1.90
2019-02-07T16:37:33.635Z,1.90
2019-02-07T16:38:33.619Z,2.10
2019-02-07T16:39:33.631Z,2.00
2019-02-07T16:40:33.625Z,1.50
2019-02-07T16:41:33.621Z,2.10
2019-02-07T16:42:33.627Z,1.90
2019-02-07T16:43:33.620Z,2.00
2019-02-07T16:45:33.828Z,2.00
2019-02-07T16:46:33.601Z,2.10
2019-02-07T16:47:33.596Z,2.20
2019-02-07T16:48:33.608Z,2.00
2019-02-07T16:49:33.812Z,2.20
2019-02-07T16:50:33.576Z,1.90
2019-02-07T16:51:33.589Z,2.10
2019-02-07T16:52:33.786Z,1.80
2019-02-07T16:54:33.761Z,1.80
2019-02-07T16:55:33.564Z,2.00
2019-02-07T16:56:33.757Z,2.10
2019-02-07T16:57:33.554Z,1.80
2019-02-07T17:00:33.555Z,1.90
2019-02-07T17:01:34.061Z,1.90
2019-02-07T17:02:33.554Z,1.70
2019-02-07T17:03:33.572Z,2.10
2019-02-07T17:04:33.829Z,1.50
2019-02-07T17:06:34.154Z,1.80
2019-02-07T17:07:33.535Z,1.70
2019-02-07T17:08:33.521Z,1.70
2019-02-07T17:09:33.517Z,1.80
2019-02-07T17:10:33.527Z,1.50
2019-02-07T17:11:33.736Z,1.60
2019-02-07T17:12:33.699Z,1.60
2019-02-07T17:13:33.704Z,1.60
2019-02-07T17:14:33.530Z,1.50
2019-02-07T17:15:33.490Z,1.70
2019-02-07T17:16:33.496Z,1.50
2019-02-07T17:17:33.485Z,1.50
2019-02-07T17:18:33.505Z,1.60
2019-02-07T17:19:33.480Z,1.60
2019-02-07T17:20:33.681Z,1.70
2019-02-07T17:22:33.679Z,1.90
2019-02-07T17:23:33.669Z,1.60
2019-02-07T17:25:33.473Z,2.40
2019-02-07T17:26:34.064Z,1.90
2019-02-07T17:27:33.451Z,2.30
2019-02-07T17:29:33.649Z,2.30
2019-02-07T17:30:33.450Z,2.00
2019-02-07T17:31:33.450Z,2.00
2019-02-07T17:32:33.658Z,2.10
2019-02-07T17:33:33.645Z,2.10
2019-02-07T17:34:33.821Z,1.70
2019-02-07T17:35:33.413Z,2.00
2019-02-07T17:37:33.615Z,1.90
2019-02-07T17:38:33.629Z,1.90